Time;durP1;ratioP1;P1;durP2;ratioP2;P2;SDS_P1;SDS_P2;PMS_P1;PMS_P2;Temp;Humidity;BMP_temperature;BMP_pressure;BME280_temperature;BME280_humidity;BME280_pressure;Samples;Min_cycle;Max_cycle;Signal;HPM_P1;HPM_P2
2023/12/27 00:01:31;;;;;;;8.02;1.25;;;4.00;99.90;;;5.78;100.00;101209.41;5071980;28;20029;-82
2023/12/27 00:04:00;;;;;;;7.95;1.20;;;3.90;99.90;;;5.89;100.00;101230.72;5034362;28;20078;-81
2023/12/27 00:06:26;;;;;;;8.40;1.27;;;3.90;99.90;;;5.59;100.00;101207.91;5054617;28;20036;-82
2023/12/27 00:08:53;;;;;;;7.72;1.30;;;3.90;99.90;;;5.73;100.00;101246.97;5070330;28;20039;-81
2023/12/27 00:11:20;;;;;;;9.30;1.50;;;3.90;99.90;;;5.72;100.00;101210.97;5054544;28;20090;-82
2023/12/27 00:13:49;;;;;;;12.00;1.83;;;3.90;99.90;;;5.86;100.00;101239.19;5069862;28;20090;-83
2023/12/27 00:16:17;;;;;;;9.90;1.60;;;3.90;99.90;;;5.56;100.00;101211.78;5069318;28;20289;-82
2023/12/27 00:18:43;;;;;;;12.43;1.33;;;3.90;99.90;;;5.38;100.00;101198.44;5053517;28;20124;-81
2023/12/27 00:21:11;;;;;;;11.75;1.40;;;3.90;99.90;;;5.69;100.00;101251.88;5050727;28;20032;-81
2023/12/27 00:23:43;;;;;;;6.65;1.10;;;3.80;99.90;;;5.70;100.00;101236.50;5069716;28;20029;-81
2023/12/27 00:26:11;;;;;;;9.68;1.20;;;3.80;99.90;;;5.38;100.00;101206.53;5048099;28;20033;-80
2023/12/27 00:28:38;;;;;;;12.93;1.90;;;3.70;99.90;;;5.58;100.00;101238.69;5071350;28;20032;-82
2023/12/27 00:31:04;;;;;;;10.68;1.33;;;3.70;99.90;;;5.65;100.00;101234.28;5052652;28;20035;-81
2023/12/27 00:33:30;;;;;;;19.10;1.65;;;3.70;99.90;;;5.58;100.00;101239.56;5068352;28;20115;-82
2023/12/27 00:35:55;;;;;;;11.35;1.55;;;3.60;99.90;;;5.44;100.00;101243.78;5067518;28;20425;-81
2023/12/27 00:38:21;;;;;;;9.60;1.65;;;3.50;99.90;;;5.35;100.00;101250.19;5070917;28;20040;-81
2023/12/27 00:40:47;;;;;;;10.10;1.33;;;3.40;99.90;;;5.23;100.00;101248.81;5070544;28;20077;-81
2023/12/27 00:43:13;;;;;;;13.63;1.63;;;3.50;99.90;;;5.33;100.00;101255.78;5070748;28;20029;-82
2023/12/27 00:45:39;;;;;;;7.70;1.40;;;3.40;99.90;;;5.30;100.00;101261.53;5068783;28;20090;-80
2023/12/27 00:48:05;;;;;;;6.88;1.15;;;3.40;99.90;;;5.30;100.00;101257.97;5070502;28;20035;-80
2023/12/27 00:50:30;;;;;;;6.30;1.88;;;3.30;99.90;;;5.37;100.00;101258.16;5049495;28;20028;-81
2023/12/27 00:52:57;;;;;;;8.65;1.30;;;3.30;99.90;;;5.25;100.00;101263.03;5068133;28;20063;-81
2023/12/27 00:55:23;;;;;;;11.32;1.40;;;3.30;99.90;;;5.18;100.00;101257.44;5068833;28;20457;-81
2023/12/27 00:57:49;;;;;;;9.25;1.25;;;3.40;99.90;;;5.24;100.00;101258.63;5070525;28;20037;-80
2023/12/27 01:00:16;;;;;;;11.18;1.85;;;3.30;99.90;;;5.32;100.00;101267.63;5069384;28;20550;-80
2023/12/27 01:02:42;;;;;;;11.25;1.20;;;3.30;99.90;;;5.29;100.00;101272.50;5068132;28;20032;-81
2023/12/27 01:05:09;;;;;;;7.55;1.38;;;3.20;99.90;;;5.23;100.00;101273.19;5069905;28;20535;-81
2023/12/27 01:07:35;;;;;;;8.25;1.02;;;3.20;99.90;;;5.20;100.00;101282.47;5070245;28;20036;-80
2023/12/27 01:10:00;;;;;;;9.48;1.30;;;3.30;99.90;;;5.21;100.00;101292.25;5070551;28;20158;-80
2023/12/27 01:12:26;;;;;;;13.13;1.77;;;3.30;99.90;;;5.16;100.00;101290.03;5069320;28;20036;-80
2023/12/27 01:14:52;;;;;;;8.88;1.63;;;3.20;99.90;;;5.17;100.00;101288.19;5056692;28;20439;-80
2023/12/27 01:17:17;;;;;;;11.38;1.45;;;3.20;99.90;;;5.13;100.00;101300.38;5063885;28;20044;-80
2023/12/27 01:19:43;;;;;;;10.73;1.42;;;3.10;99.90;;;5.19;100.00;101302.41;5047177;28;20033;-80
2023/12/27 01:22:09;;;;;;;9.65;1.35;;;3.10;99.90;;;5.10;100.00;101306.13;5058696;28;20028;-80
2023/12/27 01:24:35;;;;;;;11.73;1.58;;;3.00;99.90;;;5.09;100.00;101312.53;5034726;28;20072;-80
2023/12/27 01:27:00;;;;;;;12.52;1.33;;;3.00;99.90;;;5.01;100.00;101305.22;5061855;28;20075;-81
2023/12/27 01:29:26;;;;;;;8.50;1.55;;;2.90;99.90;;;5.01;100.00;101314.19;5036306;28;20039;-80
2023/12/27 01:31:52;;;;;;;11.55;1.55;;;2.80;99.90;;;5.10;100.00;101316.94;5070047;28;20063;-81
2023/12/27 01:34:18;;;;;;;6.90;1.88;;;2.80;99.90;;;4.93;100.00;101316.88;5059272;28;20098;-80
2023/12/27 01:36:44;;;;;;;10.38;1.40;;;2.80;99.90;;;4.93;100.00;101322.28;5061558;28;20037;-80
2023/12/27 01:39:09;;;;;;;10.23;1.20;;;2.70;99.90;;;4.94;100.00;101328.53;5034990;28;20058;-80
2023/12/27 01:41:35;;;;;;;9.18;1.20;;;2.70;99.90;;;4.90;100.00;101314.50;5044920;28;20029;-80
2023/12/27 01:44:01;;;;;;;10.80;1.50;;;2.70;99.90;;;4.92;100.00;101320.59;5064835;28;20047;-80
2023/12/27 01:46:28;;;;;;;9.65;1.65;;;2.80;99.90;;;4.94;100.00;101320.44;5057380;28;20515;-81
2023/12/27 01:48:54;;;;;;;12.40;1.40;;;2.70;99.90;;;4.84;100.00;101328.66;5044135;28;20098;-80
2023/12/27 01:51:20;;;;;;;11.80;1.48;;;2.60;99.90;;;4.84;100.00;101331.38;5069842;28;22061;-80
2023/12/27 01:53:49;;;;;;;9.73;1.45;;;2.60;99.90;;;4.91;100.00;101335.09;5054630;28;20456;-80
2023/12/27 01:56:15;;;;;;;11.05;1.92;;;2.60;99.90;;;4.90;100.00;101341.53;5062081;28;20048;-81
2023/12/27 01:58:41;;;;;;;7.45;1.70;;;2.60;99.90;;;4.87;100.00;101352.69;5049330;28;20151;-80
2023/12/27 02:01:07;;;;;;;6.72;1.20;;;2.70;99.90;;;4.80;100.00;101346.22;5040041;28;20045;-81
2023/12/27 02:03:32;;;;;;;10.05;1.52;;;2.70;99.90;;;4.80;100.00;101346.22;5037238;28;20051;-80
2023/12/27 02:06:00;;;;;;;8.57;1.10;;;2.70;99.90;;;4.65;100.00;101341.41;5069804;28;20041;-81
2023/12/27 02:08:27;;;;;;;11.00;1.58;;;2.70;99.90;;;4.65;100.00;101336.00;5053759;28;20040;-80
2023/12/27 02:10:52;;;;;;;10.90;1.30;;;2.70;99.90;;;4.61;100.00;101326.53;5062766;28;20037;-80
2023/12/27 02:13:19;;;;;;;12.23;1.38;;;2.60;99.90;;;4.58;100.00;101327.69;5068216;28;20087;-81
2023/12/27 02:15:46;;;;;;;9.60;1.35;;;2.60;99.90;;;4.62;100.00;101325.50;5065366;28;20492;-80
2023/12/27 02:18:14;;;;;;;9.98;1.33;;;2.60;99.90;;;4.59;100.00;101326.66;5059808;28;20041;-80
2023/12/27 02:20:40;;;;;;;;;;;2.50;99.90;;;4.66;100.00;101326.88;5061051;28;20032;-80
2023/12/27 02:23:10;;;;;;;8.23;1.05;;;2.50;99.90;;;4.73;100.00;101313.56;5033627;28;19951;-81
2023/12/27 02:25:36;;;;;;;9.20;1.58;;;2.40;99.90;;;4.67;100.00;101323.16;5038883;28;20032;-81
2023/12/27 02:28:04;;;;;;;12.85;1.45;;;2.40;99.90;;;4.65;100.00;101325.19;5054475;28;20448;-81
2023/12/27 02:30:33;;;;;;;7.40;1.55;;;2.40;99.90;;;4.58;100.00;101302.53;5041981;28;20037;-81
2023/12/27 02:32:58;;;;;;;13.60;1.38;;;2.40;99.90;;;4.58;100.00;101303.34;5068436;28;20480;-80
2023/12/27 02:35:24;;;;;;;13.98;1.63;;;2.40;99.90;;;4.60;100.00;101317.56;5067901;28;20085;-81
2023/12/27 02:37:50;;;;;;;9.95;1.17;;;2.50;99.90;;;4.68;100.00;101305.09;5035571;28;20059;-80
2023/12/27 02:40:15;;;;;;;10.05;1.25;;;2.50;99.90;;;4.60;100.00;101305.91;5064888;28;20048;-81
2023/12/27 02:42:41;;;;;;;8.45;1.35;;;2.50;99.90;;;4.66;100.00;101312.53;5064177;28;20036;-80
2023/12/27 02:45:07;;;;;;;6.57;1.50;;;2.50;99.90;;;4.59;100.00;101304.22;5039087;28;20040;-80
2023/12/27 02:47:34;;;;;;;8.05;1.40;;;2.40;99.90;;;4.52;100.00;101308.59;5058680;28;20031;-80
2023/12/27 02:49:59;;;;;;;8.52;1.75;;;2.30;99.90;;;4.32;100.00;101306.09;5041137;28;20055;-81
2023/12/27 02:52:25;;;;;;;8.82;1.38;;;2.20;99.90;;;4.28;100.00;101302.84;5051387;28;20028;-80
2023/12/27 02:54:51;;;;;;;11.02;1.50;;;2.00;99.90;;;4.32;100.00;101293.41;5035849;28;20055;-80
2023/12/27 02:57:17;;;;;;;15.43;1.65;;;2.00;99.90;;;4.29;100.00;101293.75;5067721;28;20040;-80
2023/12/27 02:59:42;;;;;;;7.15;1.33;;;1.90;99.90;;;4.23;100.00;101298.94;5072089;28;20032;-79
2023/12/27 03:02:08;;;;;;;9.25;1.45;;;1.90;99.90;;;4.14;100.00;101288.06;5070340;28;20040;-80
2023/12/27 03:04:34;;;;;;;7.18;1.25;;;1.80;99.90;;;4.20;100.00;101304.66;5066139;28;20051;-80
2023/12/27 03:07:00;;;;;;;10.45;1.52;;;1.80;99.90;;;3.96;100.00;101298.06;5061235;28;20445;-79
2023/12/27 03:09:26;;;;;;;6.82;0.93;;;1.70;99.90;;;3.88;100.00;101305.09;5062394;28;20029;-80
2023/12/27 03:11:52;;;;;;;13.25;1.67;;;1.70;99.90;;;3.83;100.00;101303.88;5054387;28;20322;-79
2023/12/27 03:14:17;;;;;;;12.23;1.20;;;1.60;99.90;;;3.53;100.00;101298.75;5070995;28;20075;-79
2023/12/27 03:16:43;;;;;;;10.43;1.70;;;1.60;99.90;;;3.65;100.00;101312.84;5072683;28;20491;-79
2023/12/27 03:19:09;;;;;;;9.18;1.38;;;1.70;99.90;;;3.77;100.00;101299.97;5059427;28;20084;-80
2023/12/27 03:21:35;;;;;;;10.57;1.13;;;1.80;99.90;;;3.77;100.00;101299.97;5048769;28;20036;-79
2023/12/27 03:24:01;;;;;;;15.20;1.75;;;1.80;99.90;;;3.87;100.00;101283.69;5038195;28;20072;-80
2023/12/27 03:26:26;;;;;;;11.07;1.23;;;1.90;99.90;;;4.05;100.00;101296.28;5058121;28;20075;-80
2023/12/27 03:28:52;;;;;;;9.15;1.25;;;1.90;99.90;;;4.03;100.00;101289.19;5048876;28;20032;-79
2023/12/27 03:31:18;;;;;;;10.80;1.42;;;1.90;99.90;;;4.09;100.00;101281.44;5042284;28;20033;-79
2023/12/27 03:33:44;;;;;;;6.78;1.13;;;1.80;99.90;;;4.08;100.00;101290.56;5067254;28;20021;-79
2023/12/27 03:36:09;;;;;;;9.45;1.17;;;1.80;99.90;;;3.88;100.00;101288.91;5072606;28;20047;-79
2023/12/27 03:38:35;;;;;;;9.40;1.38;;;1.70;99.90;;;4.02;100.00;101286.66;5059954;28;20029;-79
2023/12/27 03:41:02;;;;;;;7.28;1.25;;;1.60;99.90;;;3.92;100.00;101286.75;5062164;28;20441;-80
2023/12/27 03:43:27;;;;;;;10.00;1.80;;;1.60;99.90;;;3.87;100.00;101291.78;5066380;28;20032;-79
2023/12/27 03:45:54;;;;;;;8.93;1.30;;;1.50;99.90;;;3.87;100.00;101295.31;5054700;28;20063;-80
2023/12/27 03:48:23;;;;;;;10.85;1.58;;;1.40;99.90;;;3.93;100.00;101292.97;5071781;28;20604;-80
2023/12/27 03:50:48;;;;;;;10.93;1.60;;;1.40;99.90;;;3.85;100.00;101286.53;5037899;28;20047;-79
2023/12/27 03:53:14;;;;;;;10.85;1.45;;;1.40;99.90;;;3.82;100.00;101294.06;5071670;28;20032;-80
2023/12/27 03:55:42;;;;;;;8.95;1.35;;;1.40;99.90;;;3.66;100.00;101289.38;5062232;28;20056;-80
2023/12/27 03:58:09;;;;;;;6.30;1.30;;;1.40;99.90;;;3.64;100.00;101289.56;5067896;28;20796;-79
2023/12/27 04:00:34;;;;;;;9.57;1.52;;;1.40;99.90;;;3.57;100.00;101300.13;5054555;28;20032;-79
2023/12/27 04:03:00;;;;;;;6.57;1.80;;;1.50;99.90;;;3.65;100.00;101293.97;5040859;28;20044;-80
2023/12/27 04:05:26;;;;;;;7.57;1.35;;;1.50;99.90;;;3.74;100.00;101294.88;5067295;28;20102;-80
2023/12/27 04:07:52;;;;;;;9.02;1.30;;;1.50;99.90;;;3.68;100.00;101293.66;5059070;28;20145;-80
2023/12/27 04:10:17;;;;;;;10.52;1.35;;;1.40;99.90;;;3.67;100.00;101296.47;5069407;28;20051;-80
2023/12/27 04:12:43;;;;;;;9.18;1.10;;;1.40;99.90;;;3.60;100.00;101277.38;5059513;28;20036;-79
2023/12/27 04:15:09;;;;;;;19.52;1.60;;;1.40;99.90;;;3.57;100.00;101289.34;5059483;28;20037;-79
2023/12/27 04:17:35;;;;;;;15.45;1.52;;;1.40;99.90;;;3.34;100.00;101288.09;5038123;28;20144;-79
2023/12/27 04:20:01;;;;;;;9.38;2.08;;;1.40;99.90;;;3.09;100.00;101277.06;5065699;28;20047;-79
2023/12/27 04:22:27;;;;;;;8.27;1.40;;;1.50;99.90;;;3.27;100.00;101279.75;5072009;28;20028;-79
2023/12/27 04:24:53;;;;;;;8.35;1.67;;;1.50;99.90;;;3.35;100.00;101285.25;5066442;28;20047;-80
2023/12/27 04:27:18;;;;;;;9.35;1.75;;;1.50;99.90;;;3.47;100.00;101272.38;5071659;28;20134;-79
2023/12/27 04:29:44;;;;;;;11.77;1.63;;;1.50;99.90;;;3.66;100.00;101278.59;5053765;28;20033;-80
2023/12/27 04:32:10;;;;;;;10.63;1.45;;;1.50;99.90;;;3.55;100.00;101280.53;5061923;28;20036;-80
2023/12/27 04:34:36;;;;;;;10.75;1.23;;;1.50;99.90;;;3.69;100.00;101289.94;5061616;28;20029;-80
2023/12/27 04:37:02;;;;;;;12.20;1.92;;;1.50;99.90;;;3.33;100.00;101265.69;5059663;28;20073;-79
2023/12/27 04:39:28;;;;;;;11.98;1.73;;;1.50;99.90;;;3.51;100.00;101284.56;5053505;28;20048;-80
2023/12/27 04:41:53;;;;;;;12.07;1.40;;;1.60;99.90;;;3.62;100.00;101283.47;5056116;28;20052;-79
2023/12/27 04:44:19;;;;;;;8.50;1.75;;;1.70;99.90;;;3.70;100.00;101277.28;5053540;28;20488;-80
2023/12/27 04:46:45;;;;;;;9.32;1.60;;;1.80;99.90;;;3.71;100.00;101284.38;5048805;28;20040;-80
2023/12/27 04:49:12;;;;;;;7.18;1.80;;;1.90;99.90;;;3.77;100.00;101289.16;5052459;28;20025;-80
2023/12/27 04:51:39;;;;;;;8.55;1.45;;;2.00;99.90;;;3.92;100.00;101313.75;5069231;28;20032;-81
2023/12/27 04:54:05;;;;;;;16.93;2.03;;;2.00;99.90;;;4.06;100.00;101306.06;5062377;28;20106;-79
2023/12/27 04:56:31;;;;;;;14.05;2.47;;;2.00;99.90;;;3.88;100.00;101315.91;5037239;28;21247;-80
2023/12/27 04:58:57;;;;;;;8.32;1.67;;;2.00;99.90;;;3.89;100.00;101309.50;5059148;28;20064;-80
2023/12/27 05:01:22;;;;;;;9.07;1.48;;;2.10;99.90;;;3.87;100.00;101311.50;5049108;28;20357;-80
2023/12/27 05:03:50;;;;;;;15.15;1.80;;;2.10;99.90;;;4.13;100.00;101323.38;5039396;28;20485;-80
2023/12/27 05:06:16;;;;;;;16.90;1.63;;;2.20;99.90;;;4.13;100.00;101297.19;5052962;28;20094;-80
2023/12/27 05:08:43;;;;;;;11.02;1.80;;;2.30;99.90;;;4.12;100.00;101303.59;5067358;28;20029;-80
2023/12/27 05:11:18;;;;;;;16.17;1.58;;;2.30;99.90;;;4.17;100.00;101305.84;5063049;28;20135;-79
2023/12/27 05:13:44;;;;;;;11.73;1.73;;;2.40;99.90;;;4.10;100.00;101316.41;5063968;28;21042;-79
2023/12/27 05:16:17;;;;;;;8.93;1.70;;;2.50;99.90;;;4.10;100.00;101329.06;5058508;28;20033;-79
2023/12/27 05:18:44;;;;;;;14.88;1.55;;;;;;;4.01;100.00;101336.28;5059603;28;20036;-80
2023/12/27 05:21:17;;;;;;;12.07;1.60;;;2.50;99.90;;;3.93;100.00;101337.03;5070424;28;20069;-80
2023/12/27 05:23:42;;;;;;;10.23;1.73;;;2.40;99.90;;;3.74;100.00;101301.13;5070520;28;20041;-80
2023/12/27 05:26:08;;;;;;;10.23;1.50;;;2.40;99.90;;;4.02;100.00;101330.69;5064952;28;20040;-79
2023/12/27 05:28:34;;;;;;;13.70;1.48;;;2.40;99.90;;;4.00;100.00;101315.66;5059889;28;20044;-80
2023/12/27 05:31:00;;;;;;;8.30;1.50;;;2.50;99.90;;;4.15;100.00;101330.28;5058478;28;20433;-79
2023/12/27 05:33:26;;;;;;;10.88;1.50;;;2.60;99.90;;;4.13;100.00;101326.91;5061521;28;20544;-80
2023/12/27 05:35:52;;;;;;;10.38;1.70;;;2.60;99.90;;;4.18;100.00;101324.56;5069844;28;20036;-79
2023/12/27 05:38:18;;;;;;;7.07;1.40;;;2.60;99.90;;;4.01;100.00;101333.56;5070221;28;20028;-79
2023/12/27 05:40:44;;;;;;;9.35;1.60;;;2.60;99.90;;;4.18;100.00;101319.16;5064213;28;20439;-79
2023/12/27 05:43:09;;;;;;;10.50;1.30;;;2.60;99.90;;;4.23;100.00;101328.63;5069937;28;20449;-80
2023/12/27 05:45:35;;;;;;;9.80;1.50;;;2.60;99.90;;;4.41;100.00;101326.75;5058749;28;20067;-79
2023/12/27 05:48:01;;;;;;;12.57;1.80;;;2.60;99.90;;;4.35;100.00;101313.00;5065309;28;20051;-79
2023/12/27 05:50:26;;;;;;;8.32;1.70;;;2.70;99.90;;;4.35;100.00;101291.41;5070288;28;20041;-79
2023/12/27 05:52:54;;;;;;;13.02;1.85;;;2.70;99.90;;;4.74;100.00;101331.50;5067419;28;20048;-80
2023/12/27 05:55:20;;;;;;;7.85;1.33;;;2.60;99.90;;;4.44;100.00;101312.06;5061772;28;20036;-80
2023/12/27 05:57:45;;;;;;;8.80;1.50;;;2.60;99.90;;;4.34;100.00;101314.03;5067214;28;20036;-79
2023/12/27 06:00:12;;;;;;;11.00;1.80;;;2.50;99.90;;;4.17;100.00;101306.66;5058590;28;20499;-80
2023/12/27 06:02:39;;;;;;;10.45;1.60;;;2.40;99.90;;;4.09;100.00;101320.13;5065030;28;20104;-80
2023/12/27 06:05:06;;;;;;;9.48;1.55;;;2.40;99.90;;;3.98;100.00;101323.09;5053757;28;20490;-79
2023/12/27 06:07:32;;;;;;;8.57;1.30;;;2.30;99.90;;;3.82;100.00;101305.72;5066218;28;20443;-80
2023/12/27 06:09:57;;;;;;;11.38;1.30;;;2.30;99.90;;;3.94;100.00;101310.88;5068309;28;20051;-79
2023/12/27 06:12:23;;;;;;;6.15;1.35;;;2.30;99.90;;;3.86;100.00;101296.31;5069705;28;20036;-79
2023/12/27 06:14:49;;;;;;;8.55;1.25;;;2.30;99.90;;;3.96;100.00;101306.16;5065781;28;20044;-79
2023/12/27 06:17:14;;;;;;;7.18;1.50;;;2.40;99.90;;;4.09;100.00;101311.16;5064358;28;20032;-79
2023/12/27 06:19:40;;;;;;;6.57;1.63;;;2.50;99.90;;;4.24;100.00;101300.63;5068066;28;20377;-79
2023/12/27 06:22:07;;;;;;;9.52;1.70;;;2.60;99.90;;;4.35;100.00;101308.47;5063602;28;20093;-79
2023/12/27 06:24:32;;;;;;;13.13;1.90;;;2.60;99.90;;;4.18;100.00;101286.75;5063212;28;20041;-79
2023/12/27 06:26:58;;;;;;;6.68;2.03;;;2.60;99.90;;;4.24;100.00;101301.47;5066337;28;20047;-79
2023/12/27 06:29:24;;;;;;;10.32;1.50;;;2.70;99.90;;;4.26;100.00;101314.84;5069320;28;20025;-79
2023/12/27 06:31:49;;;;;;;10.00;1.73;;;2.70;99.90;;;4.17;100.00;101309.38;5067977;28;20040;-79
2023/12/27 06:34:17;;;;;;;9.75;1.52;;;2.60;99.90;;;3.94;100.00;101305.47;5075713;28;20048;-79
2023/12/27 06:36:43;;;;;;;8.73;1.92;;;2.40;99.90;;;3.87;100.00;101306.09;5075347;28;20164;-80
2023/12/27 06:39:08;;;;;;;13.02;2.13;;;2.40;99.90;;;3.84;100.00;101301.03;5064753;28;20106;-79
2023/12/27 06:41:34;;;;;;;14.23;2.30;;;2.30;99.90;;;3.84;100.00;101308.25;5054007;28;20082;-81
2023/12/27 06:44:00;;;;;;;8.27;2.22;;;2.30;99.90;;;3.83;100.00;101303.88;5064893;28;20090;-82
2023/12/27 06:46:26;;;;;;;12.75;2.88;;;2.20;99.90;;;3.65;100.00;101290.41;5062823;28;20036;-82
2023/12/27 06:48:52;;;;;;;9.23;2.40;;;2.10;99.90;;;3.70;100.00;101310.53;5066654;28;20132;-78
2023/12/27 06:51:17;;;;;;;12.25;2.55;;;2.10;99.90;;;3.65;100.00;101301.19;5072741;28;20036;-78
2023/12/27 06:53:43;;;;;;;11.65;2.55;;;2.00;99.90;;;3.60;100.00;101293.59;5075638;28;20395;-79
2023/12/27 06:56:10;;;;;;;11.70;2.28;;;2.00;99.90;;;3.47;100.00;101299.38;5060575;28;20086;-78
2023/12/27 06:58:36;;;;;;;10.60;2.37;;;1.90;99.90;;;3.62;100.00;101296.09;5065835;28;20036;-79
2023/12/27 07:01:02;;;;;;;9.55;2.25;;;1.90;99.90;;;3.56;100.00;101290.34;5060155;28;20094;-83
2023/12/27 07:03:28;;;;;;;11.27;1.98;;;1.90;99.90;;;3.49;100.00;101291.09;5068059;28;20060;-77
2023/12/27 07:05:54;;;;;;;13.88;2.72;;;1.90;99.90;;;3.48;100.00;101287.56;5068072;28;20499;-79
2023/12/27 07:08:19;;;;;;;13.13;2.25;;;1.80;99.90;;;3.34;100.00;101302.44;5052487;28;20040;-77
2023/12/27 07:10:45;;;;;;;11.85;1.92;;;1.80;99.90;;;3.36;100.00;101297.75;5052332;28;20053;-77
2023/12/27 07:13:11;;;;;;;12.18;2.10;;;1.80;99.90;;;3.42;100.00;101301.66;5062654;28;20049;-77
2023/12/27 07:15:37;;;;;;;12.48;2.15;;;1.80;99.90;;;3.64;100.00;101313.84;5062528;28;20044;-77
2023/12/27 07:18:03;;;;;;;13.90;2.28;;;1.80;99.90;;;3.62;100.00;101317.69;5068890;28;20550;-77
2023/12/27 07:20:29;;;;;;;9.07;1.75;;;1.90;99.90;;;3.73;100.00;101325.56;5075681;28;20045;-77
2023/12/27 07:22:56;;;;;;;10.15;2.22;;;1.90;99.90;;;3.52;100.00;101323.16;5062678;28;20109;-77
2023/12/27 07:25:22;;;;;;;14.45;2.00;;;1.80;99.90;;;3.54;100.00;101310.38;5054084;28;20072;-77
2023/12/27 07:27:48;;;;;;;13.27;2.10;;;1.80;99.90;;;3.58;100.00;101318.00;5057429;28;20607;-77
2023/12/27 07:30:14;;;;;;;9.40;1.80;;;1.70;99.90;;;3.71;100.00;101306.81;5065924;28;20036;-77
2023/12/27 07:32:40;;;;;;;10.00;2.10;;;1.70;99.90;;;3.82;100.00;101308.44;5066846;28;20544;-79
2023/12/27 07:35:06;;;;;;;12.15;2.30;;;1.70;99.90;;;3.85;100.00;101321.63;5074223;28;20032;-77
2023/12/27 07:37:32;;;;;;;8.18;1.80;;;1.80;99.90;;;3.98;100.00;101314.97;5068354;28;20044;-79
2023/12/27 07:39:57;;;;;;;7.38;1.70;;;1.90;99.90;;;3.95;100.00;101315.28;5069800;28;20041;-79
2023/12/27 07:42:24;;;;;;;14.80;2.30;;;2.00;99.90;;;3.98;100.00;101315.81;5064992;28;20131;-77
2023/12/27 07:44:52;;;;;;;13.98;2.00;;;2.00;99.90;;;4.03;100.00;101315.34;5061003;28;20408;-79
2023/12/27 07:47:18;;;;;;;7.07;1.92;;;2.10;99.90;;;4.14;100.00;101301.59;5068176;28;20370;-78
2023/12/27 07:49:43;;;;;;;10.13;1.70;;;2.10;99.90;;;4.03;100.00;101294.59;5071145;28;20108;-77
2023/12/27 07:52:09;;;;;;;9.23;1.80;;;2.00;99.90;;;3.92;100.00;101305.66;5067711;28;20035;-77
2023/12/27 07:54:38;;;;;;;10.18;1.98;;;1.90;99.90;;;3.93;100.00;101317.28;5071096;28;20105;-77
2023/12/27 07:57:04;;;;;;;11.88;1.92;;;1.90;99.90;;;3.84;100.00;101310.97;5067109;28;20040;-77
2023/12/27 07:59:31;;;;;;;11.93;2.05;;;2.00;99.90;;;3.99;100.00;101316.69;5065004;28;20557;-77
2023/12/27 08:01:58;;;;;;;7.47;1.60;;;2.20;99.90;;;4.11;100.00;101320.81;5050325;28;20041;-77
2023/12/27 08:04:23;;;;;;;8.70;1.87;;;2.30;99.90;;;4.08;100.00;101318.44;5064746;28;20132;-77
2023/12/27 08:06:49;;;;;;;6.55;1.85;;;2.30;99.90;;;4.11;100.00;101315.41;5071949;28;20127;-77
2023/12/27 08:09:15;;;;;;;7.20;1.90;;;2.30;99.90;;;4.32;100.00;101322.31;5071132;28;20048;-77
2023/12/27 08:11:41;;;;;;;8.23;1.73;;;2.30;99.90;;;4.49;100.00;101307.03;5070951;28;20059;-77
2023/12/27 08:14:07;;;;;;;10.15;1.77;;;2.30;99.90;;;4.45;100.00;101313.78;5069801;28;20067;-77
2023/12/27 08:16:33;;;;;;;8.95;2.00;;;2.30;99.90;;;4.38;100.00;101307.31;5070212;28;20036;-77
2023/12/27 08:18:58;;;;;;;7.80;1.75;;;2.20;99.90;;;4.44;100.00;101306.69;5071446;28;20036;-77
2023/12/27 08:21:24;;;;;;;9.85;1.95;;;2.30;99.90;;;4.43;100.00;101311.22;5052222;28;20045;-77
2023/12/27 08:23:50;;;;;;;9.02;2.03;;;2.30;99.90;;;4.52;100.00;101305.88;5071594;28;20059;-77
2023/12/27 08:26:16;;;;;;;9.00;1.85;;;2.30;99.90;;;4.57;100.00;101311.63;5066475;28;20087;-77
2023/12/27 08:28:41;;;;;;;8.60;2.55;;;2.40;99.90;;;4.47;100.00;101309.88;5063215;28;20161;-77
2023/12/27 08:31:07;;;;;;;12.98;2.35;;;2.40;99.90;;;4.42;100.00;101319.50;5060370;28;20040;-78
2023/12/27 08:33:37;;;;;;;7.55;2.20;;;2.40;99.90;;;4.55;100.00;101298.28;5043094;28;20040;-78
2023/12/27 08:36:04;;;;;;;9.23;2.25;;;2.40;99.90;;;4.55;100.00;101292.03;5061287;28;20083;-78
2023/12/27 08:38:32;;;;;;;9.68;2.90;;;2.50;99.90;;;4.30;100.00;101281.94;5065270;28;20114;-78
2023/12/27 08:40:58;;;;;;;10.93;2.80;;;2.50;99.90;;;4.57;100.00;101279.22;5057756;28;20063;-77
2023/12/27 08:43:29;;;;;;;8.68;2.80;;;2.60;99.90;;;4.76;100.00;101272.69;5063280;28;20040;-77
2023/12/27 08:45:57;;;;;;;10.27;2.35;;;2.70;99.90;;;4.93;100.00;101281.72;5051784;28;20071;-77
2023/12/27 08:48:23;;;;;;;10.32;2.63;;;2.80;99.90;;;4.55;100.00;101273.97;5052766;28;20037;-77
2023/12/27 08:50:51;;;;;;;23.52;3.42;;;2.80;99.90;;;4.39;100.00;101269.31;5066561;28;20063;-78
2023/12/27 08:53:16;;;;;;;11.68;3.50;;;2.80;99.90;;;4.57;100.00;101279.22;5067458;28;20043;-78
2023/12/27 08:55:42;;;;;;;10.48;3.50;;;2.90;99.90;;;4.73;100.00;101271.16;5069933;28;20036;-78
2023/12/27 08:58:09;;;;;;;13.40;3.45;;;3.10;99.90;;;5.12;100.00;101266.22;5069065;28;20426;-78
2023/12/27 09:00:35;;;;;;;7.65;2.45;;;3.20;99.90;;;5.31;100.00;101270.47;5049532;28;20526;-77
2023/12/27 09:03:01;;;;;;;13.07;3.92;;;3.30;99.90;;;5.54;100.00;101269.81;5068689;28;20067;-78
2023/12/27 09:05:26;;;;;;;9.18;2.70;;;3.40;99.90;;;5.73;100.00;101261.38;5068572;28;20051;-77
2023/12/27 09:07:52;;;;;;;9.98;2.72;;;3.50;99.90;;;5.82;100.00;101267.59;5066152;28;20030;-76
2023/12/27 09:10:18;;;;;;;7.80;2.22;;;3.60;99.90;;;5.85;100.00;101256.47;5069896;28;20365;-77
2023/12/27 09:12:44;;;;;;;12.02;2.92;;;3.70;99.90;;;5.68;100.00;101254.78;5066133;28;20489;-77
2023/12/27 09:15:10;;;;;;;9.63;2.50;;;3.80;99.90;;;5.75;100.00;101247.66;5065789;28;20491;-78
2023/12/27 09:17:36;;;;;;;12.77;2.72;;;3.80;99.90;;;5.68;100.00;101239.34;5069805;28;20047;-79
2023/12/27 09:20:05;;;;;;;12.88;2.92;;;3.80;99.90;;;5.36;100.00;101240.22;5045680;28;20040;-77
2023/12/27 09:22:31;;;;;;;9.10;2.13;;;3.90;99.90;;;5.21;100.00;101232.75;5061230;28;20119;-77
2023/12/27 09:24:57;;;;;;;14.18;3.13;;;3.90;99.90;;;5.34;100.00;101224.13;5065869;28;20082;-77
2023/12/27 09:27:25;;;;;;;14.60;1.98;;;4.00;99.90;;;5.18;100.00;101217.72;5052148;28;20045;-77
2023/12/27 09:29:52;;;;;;;6.65;1.35;;;4.00;99.90;;;5.33;100.00;101230.56;5066734;28;20433;-77
2023/12/27 09:32:18;;;;;;;11.05;2.20;;;4.10;99.90;;;5.41;100.00;101229.72;5068779;28;20029;-77
2023/12/27 09:34:44;;;;;;;8.25;1.65;;;4.10;99.90;;;5.43;100.00;101233.13;5051488;28;20057;-77
2023/12/27 09:37:09;;;;;;;10.25;2.33;;;4.20;99.90;;;5.56;100.00;101229.91;5064455;28;20076;-78
2023/12/27 09:39:35;;;;;;;9.88;2.65;;;4.20;99.90;;;5.65;100.00;101217.22;5062504;28;20032;-79
2023/12/27 09:42:01;;;;;;;13.63;2.40;;;4.30;99.90;;;5.75;100.00;101224.16;5059291;28;20044;-80
2023/12/27 09:44:27;;;;;;;11.90;2.40;;;4.30;99.90;;;5.81;100.00;101211.75;5047689;28;20479;-79
2023/12/27 09:46:57;;;;;;;11.90;1.90;;;4.40;99.90;;;5.70;100.00;101223.81;5068103;28;20036;-80
2023/12/27 09:49:24;;;;;;;8.82;2.33;;;4.40;99.90;;;5.73;100.00;101209.06;5057900;28;20464;-76
2023/12/27 09:51:52;;;;;;;10.27;2.65;;;4.40;99.90;;;5.59;100.00;101210.63;5063933;28;20638;-78
2023/12/27 09:54:20;;;;;;;7.30;2.00;;;4.50;99.90;;;5.64;100.00;101205.53;5038315;28;20076;-77
2023/12/27 09:56:47;;;;;;;9.52;2.10;;;4.50;99.90;;;5.71;100.00;101200.28;5065439;28;20462;-77
2023/12/27 09:59:29;;;;;;;10.75;1.98;;;4.50;99.90;;;5.84;100.00;101197.91;5069715;28;20028;-80
2023/12/27 10:01:59;;;;;;;6.13;2.10;;;4.60;99.90;;;5.93;100.00;101204.13;5046491;28;20086;-77
2023/12/27 10:04:54;;;;;;;9.00;2.20;;;4.70;99.90;;;5.99;100.00;101197.19;5062779;28;20477;-78
2023/12/27 10:07:24;;;;;;;8.57;2.20;;;4.70;99.90;;;5.99;100.00;101187.22;5049612;28;20085;-78
2023/12/27 10:09:50;;;;;;;10.52;2.33;;;4.80;99.90;;;6.07;100.00;101175.50;5038762;28;20028;-78
2023/12/27 10:12:16;;;;;;;7.35;2.00;;;4.90;99.90;;;6.18;100.00;101183.28;5069413;28;20078;-78